Orenge 7 — JL6148 — position and weather

sailwx.info

Track history (hours):
 
Tides and Currents Weather Stations Pressure Air Temp Water Temp Dewpoint Dewpoint Depression Visibility Wind Speed Wind Dir Waves Ship Positions

Orenge 7

Last reported at 2017-Jan-21 14:33 UTC. Time now 2017-Jan-21 21:31 UTC.
Position N 34°37' E 134°58'.

Length 163 m; draft 4.9 m.

Type: Passenger vessel. MMSI: 431500186.

Date/timePositionNaut miles runAvg speedWind from/ knotsBaromVisibWave heightAir tempDewpointWater temp
2017-Jan-21 14:33N 34°37' E 134°58'1717.5
2017-Jan-21 13:33N 34°36' E 135°19'6 5.8
2017-Jan-21 12:32N 34°37' E 135°26'0 0.0
2017-Jan-21 11:20N 34°37' E 135°26'0 0.0
2017-Jan-21 10:32N 34°37' E 135°26'0 0.0
2017-Jan-21 09:32N 34°37' E 135°26'0 0.0
2017-Jan-21 08:32N 34°37' E 135°26'0 0.0
2017-Jan-21 07:32N 34°37' E 135°26'0 0.0
2017-Jan-21 06:14N 34°37' E 135°26'0 0.0
2017-Jan-21 04:26N 34°37' E 135°26'0 0.0
2017-Jan-21 03:32N 34°37' E 135°26'0 0.0
2017-Jan-21 02:32N 34°37' E 135°26'0 0.0
2017-Jan-21 01:32N 34°37' E 135°26'0 0.0
2017-Jan-21 00:26N 34°37' E 135°26'0 0.0
2017-Jan-20 23:32N 34°37' E 135°26'0 0.0
2017-Jan-20 22:32N 34°37' E 135°26'0 0.0
2017-Jan-20 21:32N 34°37' E 135°26'5 4.9
2017-Jan-20 20:33N 34°36' E 135°20'1817.7
2017-Jan-20 19:34N 34°37' E 134°59'1 0.0
2017-Jan-19 14:33N 34°37' E 134°57'1817.8
2017-Jan-19 13:33N 34°37' E 135°19'6 5.7
2017-Jan-19 12:33N 34°37' E 135°26'0 0.0
2017-Jan-19 11:33N 34°37' E 135°26'0 0.0
2017-Jan-19 10:27N 34°37' E 135°26'0 0.0
2017-Jan-19 09:33N 34°37' E 135°26'0 0.0
2017-Jan-19 08:33N 34°37' E 135°26'0 0.0
2017-Jan-19 07:27N 34°37' E 135°26'0 0.0
2017-Jan-19 06:33N 34°37' E 135°26'0 0.0
2017-Jan-19 05:33N 34°37' E 135°26'0 0.0
2017-Jan-19 04:33N 34°37' E 135°26'0 0.0
2017-Jan-19 03:15N 34°37' E 135°26'0 0.0
2017-Jan-19 02:21N 34°37' E 135°26'0 0.0
2017-Jan-19 01:33N 34°37' E 135°26'0 0.0
2017-Jan-19 00:33N 34°37' E 135°26'0 0.0
2017-Jan-18 23:33N 34°37' E 135°26'0 0.0
2017-Jan-18 22:33N 34°37' E 135°26'0 0.0
2017-Jan-18 21:27N 34°37' E 135°26'6 6.7
2017-Jan-18 20:33N 34°36' E 135°19'1817.7
2017-Jan-18 19:33N 34°36' E 134°57'1 0.0
2017-Jan-17 14:33N 34°37' E 134°56'1818.3
2017-Jan-17 13:33N 34°37' E 135°18'6 5.7
2017-Jan-17 12:29N 34°37' E 135°26'0 0.0
2017-Jan-17 11:29N 34°37' E 135°26'0 0.0
2017-Jan-17 10:29N 34°37' E 135°26'0 0.0
2017-Jan-17 09:29N 34°37' E 135°26'0 0.0
2017-Jan-17 08:29N 34°37' E 135°26'0 0.0
2017-Jan-17 07:23N 34°37' E 135°26'0 0.0
2017-Jan-17 06:29N 34°37' E 135°26'0 0.0
2017-Jan-17 05:29N 34°37' E 135°26'0 0.0
2017-Jan-17 04:29N 34°37' E 135°26'0 0.0
2017-Jan-17 03:29N 34°37' E 135°26'0 0.0
2017-Jan-17 02:23N 34°37' E 135°26'0 0.0
2017-Jan-17 01:23N 34°37' E 135°26'0 0.0
2017-Jan-17 00:29N 34°37' E 135°26'0 0.0
2017-Jan-16 23:29N 34°37' E 135°26'0 0.0
2017-Jan-16 22:23N 34°37' E 135°26'0 0.0
2017-Jan-16 21:29N 34°37' E 135°26'5 5.4
2017-Jan-16 20:34N 34°36' E 135°20'1817.6
2017-Jan-16 19:33N 34°37' E 134°58'4 0.1
2017-Jan-15 14:31N 34°36' E 134°54'2020.2
2017-Jan-15 13:33N 34°36' E 135°18'7 5.7
2017-Jan-15 12:24N 34°37' E 135°26'0 0.0
2017-Jan-15 11:30N 34°37' E 135°26'0 0.0
2017-Jan-15 10:30N 34°37' E 135°26'0 0.0
2017-Jan-15 09:30N 34°37' E 135°26'0 0.0
2017-Jan-15 08:30N 34°37' E 135°26'0 0.0
2017-Jan-15 07:30N 34°37' E 135°26'0 0.0
2017-Jan-15 06:30N 34°37' E 135°26'0 0.0
2017-Jan-15 05:30N 34°37' E 135°26'0 0.0
2017-Jan-15 04:30N 34°37' E 135°26'0 0.0
2017-Jan-15 03:30N 34°37' E 135°26'0 0.0
2017-Jan-15 02:30N 34°37' E 135°26'0 0.0
2017-Jan-15 01:30N 34°37' E 135°26'0 0.0
2017-Jan-15 00:30N 34°37' E 135°26'0 0.0
2017-Jan-14 23:24N 34°37' E 135°26'0 0.0
2017-Jan-14 22:30N 34°37' E 135°26'0 0.0
2017-Jan-14 21:30N 34°37' E 135°26'5 5.1
2017-Jan-14 20:33N 34°36' E 135°20'1716.4
2017-Jan-14 19:32N 34°37' E 134°60'4 0.1
2017-Jan-13 14:33N 34°36' E 134°56'1919.0
2017-Jan-13 13:33N 34°37' E 135°19'6 5.5
2017-Jan-13 12:28N 34°37' E 135°26'0 0.0
2017-Jan-13 11:28N 34°37' E 135°26'0 0.0
2017-Jan-13 10:28N 34°37' E 135°26'0 0.0
2017-Jan-13 09:28N 34°37' E 135°26'0 0.0
2017-Jan-13 08:28N 34°37' E 135°26'0 0.0
2017-Jan-13 07:28N 34°37' E 135°26'0 0.0
2017-Jan-13 06:16N 34°37' E 135°26'0 0.0
2017-Jan-13 05:28N 34°37' E 135°26'0 0.0
2017-Jan-13 04:28N 34°37' E 135°26'0 0.0
2017-Jan-13 03:22N 34°37' E 135°26'0 0.0
2017-Jan-13 02:22N 34°37' E 135°26'0 0.0
2017-Jan-13 01:28N 34°37' E 135°26'0 0.0
2017-Jan-13 00:28N 34°37' E 135°26'0 0.0
2017-Jan-12 23:28N 34°37' E 135°26'0 0.0
2017-Jan-12 22:28N 34°37' E 135°26'0 0.0
2017-Jan-12 21:22N 34°37' E 135°26'5 6.2
2017-Jan-12 20:33N 34°36' E 135°20'1616.4
2017-Jan-12 19:33N 34°37' E 135°00'2 0.1
2017-Jan-11 14:33N 34°37' E 134°57'  
Track history (hours):
 
Tides and Currents Weather Stations Pressure Air Temp Water Temp Dewpoint Dewpoint Depression Visibility Wind Speed Wind Dir Waves Ship Positions

Orenge 7

Last reported at 2017-Jan-21 14:33 UTC. Time now 2017-Jan-21 21:31 UTC.
Position N 34°37' E 134°58'.

Length 163 m; draft 4.9 m.

Type: Passenger vessel. MMSI: 431500186.

Date/timePositionNaut miles runAvg speedWind from/ knotsBaromVisibWave heightAir tempDewpointWater temp
2017-Jan-21 14:33N 34°37' E 134°58'1717.5
2017-Jan-21 13:33N 34°36' E 135°19'6 5.8
2017-Jan-21 12:32N 34°37' E 135°26'0 0.0
2017-Jan-21 11:20N 34°37' E 135°26'0 0.0
2017-Jan-21 10:32N 34°37' E 135°26'0 0.0
2017-Jan-21 09:32N 34°37' E 135°26'0 0.0
2017-Jan-21 08:32N 34°37' E 135°26'0 0.0
2017-Jan-21 07:32N 34°37' E 135°26'0 0.0
2017-Jan-21 06:14N 34°37' E 135°26'0 0.0
2017-Jan-21 04:26N 34°37' E 135°26'0 0.0
2017-Jan-21 03:32N 34°37' E 135°26'0 0.0
2017-Jan-21 02:32N 34°37' E 135°26'0 0.0
2017-Jan-21 01:32N 34°37' E 135°26'0 0.0
2017-Jan-21 00:26N 34°37' E 135°26'0 0.0
2017-Jan-20 23:32N 34°37' E 135°26'0 0.0
2017-Jan-20 22:32N 34°37' E 135°26'0 0.0
2017-Jan-20 21:32N 34°37' E 135°26'5 4.9
2017-Jan-20 20:33N 34°36' E 135°20'1817.7
2017-Jan-20 19:34N 34°37' E 134°59'1 0.0
2017-Jan-19 14:33N 34°37' E 134°57'1817.8
2017-Jan-19 13:33N 34°37' E 135°19'6 5.7
2017-Jan-19 12:33N 34°37' E 135°26'0 0.0
2017-Jan-19 11:33N 34°37' E 135°26'0 0.0
2017-Jan-19 10:27N 34°37' E 135°26'0 0.0
2017-Jan-19 09:33N 34°37' E 135°26'0 0.0
2017-Jan-19 08:33N 34°37' E 135°26'0 0.0
2017-Jan-19 07:27N 34°37' E 135°26'0 0.0
2017-Jan-19 06:33N 34°37' E 135°26'0 0.0
2017-Jan-19 05:33N 34°37' E 135°26'0 0.0
2017-Jan-19 04:33N 34°37' E 135°26'0 0.0
2017-Jan-19 03:15N 34°37' E 135°26'0 0.0
2017-Jan-19 02:21N 34°37' E 135°26'0 0.0
2017-Jan-19 01:33N 34°37' E 135°26'0 0.0
2017-Jan-19 00:33N 34°37' E 135°26'0 0.0
2017-Jan-18 23:33N 34°37' E 135°26'0 0.0
2017-Jan-18 22:33N 34°37' E 135°26'0 0.0
2017-Jan-18 21:27N 34°37' E 135°26'6 6.7
2017-Jan-18 20:33N 34°36' E 135°19'1817.7
2017-Jan-18 19:33N 34°36' E 134°57'1 0.0
2017-Jan-17 14:33N 34°37' E 134°56'1818.3
2017-Jan-17 13:33N 34°37' E 135°18'6 5.7
2017-Jan-17 12:29N 34°37' E 135°26'0 0.0
2017-Jan-17 11:29N 34°37' E 135°26'0 0.0
2017-Jan-17 10:29N 34°37' E 135°26'0 0.0
2017-Jan-17 09:29N 34°37' E 135°26'0 0.0
2017-Jan-17 08:29N 34°37' E 135°26'0 0.0
2017-Jan-17 07:23N 34°37' E 135°26'0 0.0
2017-Jan-17 06:29N 34°37' E 135°26'0 0.0
2017-Jan-17 05:29N 34°37' E 135°26'0 0.0
2017-Jan-17 04:29N 34°37' E 135°26'0 0.0
2017-Jan-17 03:29N 34°37' E 135°26'0 0.0
2017-Jan-17 02:23N 34°37' E 135°26'0 0.0
2017-Jan-17 01:23N 34°37' E 135°26'0 0.0
2017-Jan-17 00:29N 34°37' E 135°26'0 0.0
2017-Jan-16 23:29N 34°37' E 135°26'0 0.0
2017-Jan-16 22:23N 34°37' E 135°26'0 0.0
2017-Jan-16 21:29N 34°37' E 135°26'5 5.4
2017-Jan-16 20:34N 34°36' E 135°20'1817.6
2017-Jan-16 19:33N 34°37' E 134°58'4 0.1
2017-Jan-15 14:31N 34°36' E 134°54'2020.2
2017-Jan-15 13:33N 34°36' E 135°18'7 5.7
2017-Jan-15 12:24N 34°37' E 135°26'0 0.0
2017-Jan-15 11:30N 34°37' E 135°26'0 0.0
2017-Jan-15 10:30N 34°37' E 135°26'0 0.0
2017-Jan-15 09:30N 34°37' E 135°26'0 0.0
2017-Jan-15 08:30N 34°37' E 135°26'0 0.0
2017-Jan-15 07:30N 34°37' E 135°26'0 0.0
2017-Jan-15 06:30N 34°37' E 135°26'0 0.0
2017-Jan-15 05:30N 34°37' E 135°26'0 0.0
2017-Jan-15 04:30N 34°37' E 135°26'0 0.0
2017-Jan-15 03:30N 34°37' E 135°26'0 0.0
2017-Jan-15 02:30N 34°37' E 135°26'0 0.0
2017-Jan-15 01:30N 34°37' E 135°26'0 0.0
2017-Jan-15 00:30N 34°37' E 135°26'0 0.0
2017-Jan-14 23:24N 34°37' E 135°26'0 0.0
2017-Jan-14 22:30N 34°37' E 135°26'0 0.0
2017-Jan-14 21:30N 34°37' E 135°26'5 5.1
2017-Jan-14 20:33N 34°36' E 135°20'1716.4
2017-Jan-14 19:32N 34°37' E 134°60'4 0.1
2017-Jan-13 14:33N 34°36' E 134°56'1919.0
2017-Jan-13 13:33N 34°37' E 135°19'6 5.5
2017-Jan-13 12:28N 34°37' E 135°26'0 0.0
2017-Jan-13 11:28N 34°37' E 135°26'0 0.0
2017-Jan-13 10:28N 34°37' E 135°26'0 0.0
2017-Jan-13 09:28N 34°37' E 135°26'0 0.0
2017-Jan-13 08:28N 34°37' E 135°26'0 0.0
2017-Jan-13 07:28N 34°37' E 135°26'0 0.0
2017-Jan-13 06:16N 34°37' E 135°26'0 0.0
2017-Jan-13 05:28N 34°37' E 135°26'0 0.0
2017-Jan-13 04:28N 34°37' E 135°26'0 0.0
2017-Jan-13 03:22N 34°37' E 135°26'0 0.0
2017-Jan-13 02:22N 34°37' E 135°26'0 0.0
2017-Jan-13 01:28N 34°37' E 135°26'0 0.0
2017-Jan-13 00:28N 34°37' E 135°26'0 0.0
2017-Jan-12 23:28N 34°37' E 135°26'0 0.0
2017-Jan-12 22:28N 34°37' E 135°26'0 0.0
2017-Jan-12 21:22N 34°37' E 135°26'5 6.2
2017-Jan-12 20:33N 34°36' E 135°20'1616.4
2017-Jan-12 19:33N 34°37' E 135°00'2 0.1
2017-Jan-11 14:33N 34°37' E 134°57'  

Dump ship's entire track history